Time;durP1;ratioP1;P1;durP2;ratioP2;P2;SDS_P1;SDS_P2;PMS_P1;PMS_P2;Temp;Humidity;BMP_temperature;BMP_pressure;BME280_temperature;BME280_humidity;BME280_pressure;Samples;Min_cycle;Max_cycle;Signal;HPM_P1;HPM_P2
2023/04/17 00:00:20;;;;;;;9.30;7.30;;;;;;;;;;5057229;28;20218;-66
2023/04/17 00:02:49;;;;;;;10.50;6.53;;;;;;;;;;5056514;28;20206;-66
2023/04/17 00:05:21;;;;;;;8.23;6.77;;;;;;;;;;5056813;28;20767;-66
2023/04/17 00:07:50;;;;;;;12.77;7.37;;;;;;;;;;5059100;28;20310;-66
2023/04/17 00:10:17;;;;;;;11.30;7.50;;;;;;;;;;5060565;28;20233;-66
2023/04/17 00:12:45;;;;;;;12.33;7.57;;;;;;;;;;5060523;28;20326;-66
2023/04/17 00:15:13;;;;;;;11.17;7.30;;;;;;;;;;5060310;28;20258;-66
2023/04/17 00:17:41;;;;;;;9.23;7.00;;;;;;;;;;5059915;28;20793;-66
2023/04/17 00:20:12;;;;;;;10.10;6.93;;;;;;;;;;5060266;28;20222;-66
2023/04/17 00:22:40;;;;;;;12.97;6.87;;;;;;;;;;5060264;28;20211;-65
2023/04/17 00:25:11;;;;;;;12.20;7.70;;;;;;;;;;5060119;28;20574;-66
2023/04/17 00:27:39;;;;;;;15.27;7.30;;;;;;;;;;5060348;28;20306;-66
2023/04/17 00:30:08;;;;;;;10.77;7.27;;;;;;;;;;5060368;28;20214;-65
2023/04/17 00:32:36;;;;;;;10.83;6.67;;;;;;;;;;5060069;28;20231;-66
2023/04/17 00:35:04;;;;;;;12.53;6.30;;;;;;;;;;5059987;28;20277;-66
2023/04/17 00:37:34;;;;;;;12.10;7.13;;;;;;;;;;5060335;28;20234;-66
2023/04/17 00:40:02;;;;;;;9.13;7.00;;;;;;;;;;5060256;28;20210;-66
2023/04/17 00:42:30;;;;;;;10.20;6.73;;;;;;;;;;5060266;28;20265;-66
2023/04/17 00:44:58;;;;;;;9.83;6.67;;;;;;;;;;5060099;28;20203;-66
2023/04/17 00:47:26;;;;;;;7.10;6.40;;;;;;;;;;5059820;28;20222;-66
2023/04/17 00:49:54;;;;;;;9.60;6.90;;;;;;;;;;5059866;28;20206;-66
2023/04/17 00:52:27;;;;;;;8.00;6.53;;;;;;;;;;5060047;28;20241;-63
2023/04/17 00:54:57;;;;;;;8.80;6.40;;;;;;;;;;5059887;28;20282;-65
2023/04/17 00:57:26;;;;;;;9.77;6.93;;;;;;;;;;5059944;28;20211;-63
2023/04/17 00:59:56;;;;;;;9.63;6.67;;;;;;;;;;5059605;28;20585;-63
2023/04/17 01:02:24;;;;;;;10.90;7.10;;;;;;;;;;5059496;28;20207;-63
2023/04/17 01:04:52;;;;;;;11.27;7.13;;;;;;;;;;5059523;28;20206;-63
2023/04/17 01:07:21;;;;;;;8.77;7.07;;;;;;;;;;5059387;28;20329;-65
2023/04/17 01:09:48;;;;;;;13.47;7.10;;;;;;;;;;5059486;28;20215;-65
2023/04/17 01:12:19;;;;;;;8.57;6.50;;;;;;;;;;5059665;28;20207;-64
2023/04/17 01:14:47;;;;;;;8.63;6.80;;;;;;;;;;5059378;28;20733;-64
2023/04/17 01:17:17;;;;;;;10.77;7.57;;;;;;;;;;5058944;28;20302;-64
2023/04/17 01:19:45;;;;;;;10.83;7.20;;;;;;;;;;5059165;28;20662;-64
2023/04/17 01:22:15;;;;;;;11.10;6.87;;;;;;;;;;5059151;28;20278;-64
2023/04/17 01:24:44;;;;;;;8.80;6.63;;;;;;;;;;5059405;28;20238;-64
2023/04/17 01:27:14;;;;;;;11.80;6.60;;;;;;;;;;5058920;28;20261;-64
2023/04/17 01:29:42;;;;;;;9.23;6.67;;;;;;;;;;5059292;28;20260;-64
2023/04/17 01:32:10;;;;;;;8.63;6.37;;;;;;;;;;5059033;28;20209;-64
2023/04/17 01:34:38;;;;;;;8.73;6.67;;;;;;;;;;5059193;28;20214;-64
2023/04/17 01:37:06;;;;;;;9.27;6.97;;;;;;;;;;5046263;28;20210;-64
2023/04/17 01:39:34;;;;;;;7.13;5.67;;;;;;;;;;5058891;28;20214;-64
2023/04/17 01:42:03;;;;;;;10.73;6.70;;;;;;;;;;5058858;28;20555;-64
2023/04/17 01:44:36;;;;;;;9.80;6.87;;;;;;;;;;5057863;28;20654;-63
2023/04/17 01:47:04;;;;;;;9.50;6.77;;;;;;;;;;5049844;28;20234;-64
2023/04/17 01:49:32;;;;;;;7.90;6.20;;;;;;;;;;5052421;28;20199;-63
2023/04/17 01:52:00;;;;;;;9.57;7.07;;;;;;;;;;5052176;28;20210;-63
2023/04/17 01:54:28;;;;;;;6.90;6.17;;;;;;;;;;5057195;28;20203;-63
2023/04/17 01:56:56;;;;;;;10.37;6.83;;;;;;;;;;5051445;28;20310;-63
2023/04/17 01:59:26;;;;;;;8.93;6.57;;;;;;;;;;5055297;28;20199;-63
2023/04/17 02:01:55;;;;;;;9.27;6.97;;;;;;;;;;5053283;28;20199;-63
2023/04/17 02:04:23;;;;;;;9.93;6.70;;;;;;;;;;5052367;28;20199;-63
2023/04/17 02:06:51;;;;;;;10.07;6.93;;;;;;;;;;5055208;28;20592;-63
2023/04/17 02:09:19;;;;;;;11.03;7.17;;;;;;;;;;5055125;28;20662;-63
2023/04/17 02:11:48;;;;;;;12.63;7.80;;;;;;;;;;5052387;28;20211;-64
2023/04/17 02:14:18;;;;;;;11.60;8.03;;;;;;;;;;5059380;28;20281;-63
2023/04/17 02:16:48;;;;;;;9.67;6.63;;;;;;;;;;5054624;28;20251;-64
2023/04/17 02:19:16;;;;;;;12.03;7.37;;;;;;;;;;5056552;28;20231;-64
2023/04/17 02:21:44;;;;;;;10.00;7.40;;;;;;;;;;5052534;28;20214;-64
2023/04/17 02:24:12;;;;;;;9.87;7.40;;;;;;;;;;5052231;28;20199;-63
2023/04/17 02:26:40;;;;;;;9.73;7.30;;;;;;;;;;5057553;28;20276;-63
2023/04/17 02:29:08;;;;;;;13.13;7.90;;;;;;;;;;5054208;28;20250;-63
2023/04/17 02:31:36;;;;;;;11.37;7.47;;;;;;;;;;5052854;28;20260;-63
2023/04/17 02:34:06;;;;;;;8.97;7.10;;;;;;;;;;5054938;28;20204;-63
2023/04/17 02:36:34;;;;;;;11.33;6.97;;;;;;;;;;5054580;28;20317;-64
2023/04/17 02:39:02;;;;;;;11.77;7.93;;;;;;;;;;5051959;28;20221;-63
2023/04/17 02:41:30;;;;;;;11.57;7.27;;;;;;;;;;5051814;28;20199;-63
2023/04/17 02:44:00;;;;;;;8.63;7.10;;;;;;;;;;5054853;28;20214;-63
2023/04/17 02:46:28;;;;;;;11.23;6.83;;;;;;;;;;5049595;28;20215;-64
2023/04/17 02:48:56;;;;;;;11.60;7.50;;;;;;;;;;5054367;28;20698;-64
2023/04/17 02:51:26;;;;;;;8.40;6.67;;;;;;;;;;5054698;28;20199;-63
2023/04/17 02:53:54;;;;;;;10.43;7.27;;;;;;;;;;5052005;28;20207;-63
2023/04/17 02:56:22;;;;;;;10.33;7.23;;;;;;;;;;5051837;28;20258;-64
2023/04/17 02:58:50;;;;;;;9.87;6.90;;;;;;;;;;5054791;28;20684;-64
2023/04/17 03:01:26;;;;;;;10.30;7.23;;;;;;;;;;5051899;28;20206;-64
2023/04/17 03:03:54;;;;;;;10.33;6.90;;;;;;;;;;5050841;28;20198;-63
2023/04/17 03:06:23;;;;;;;10.80;6.70;;;;;;;;;;5056561;28;20222;-63
2023/04/17 03:08:52;;;;;;;14.60;7.10;;;;;;;;;;5052293;28;20223;-64
2023/04/17 03:11:20;;;;;;;10.43;6.93;;;;;;;;;;5051885;28;20257;-64
2023/04/17 03:13:48;;;;;;;11.33;7.53;;;;;;;;;;5049249;28;20214;-64
2023/04/17 03:16:16;;;;;;;10.87;6.93;;;;;;;;;;5056441;28;20592;-64
2023/04/17 03:18:44;;;;;;;10.20;7.70;;;;;;;;;;5053534;28;20235;-64
2023/04/17 03:21:12;;;;;;;11.27;7.03;;;;;;;;;;5036502;28;20203;-65
2023/04/17 03:23:40;;;;;;;9.47;7.00;;;;;;;;;;5036886;28;20580;-64
2023/04/17 03:26:10;;;;;;;13.93;7.37;;;;;;;;;;5042755;28;20237;-64
2023/04/17 03:28:38;;;;;;;9.93;7.50;;;;;;;;;;5056948;28;20584;-64
2023/04/17 03:31:06;;;;;;;8.97;6.83;;;;;;;;;;5057330;28;20245;-64
2023/04/17 03:33:34;;;;;;;10.13;7.00;;;;;;;;;;5056698;28;20673;-64
2023/04/17 03:36:02;;;;;;;9.07;6.97;;;;;;;;;;5057414;28;20269;-64
2023/04/17 03:38:30;;;;;;;8.37;6.40;;;;;;;;;;5057376;28;20237;-64
2023/04/17 03:40:58;;;;;;;9.77;6.00;;;;;;;;;;5057400;28;20293;-64
2023/04/17 03:43:27;;;;;;;10.87;6.40;;;;;;;;;;5060323;28;20662;-65
2023/04/17 03:45:55;;;;;;;10.67;7.13;;;;;;;;;;5061029;28;20233;-64
2023/04/17 03:48:23;;;;;;;8.67;6.93;;;;;;;;;;5060516;28;20234;-64
2023/04/17 03:50:51;;;;;;;11.70;7.10;;;;;;;;;;5061292;28;20211;-64
2023/04/17 03:53:19;;;;;;;9.20;6.87;;;;;;;;;;5060916;28;20317;-64
2023/04/17 03:55:47;;;;;;;9.37;6.57;;;;;;;;;;5061002;28;20234;-64
2023/04/17 03:58:15;;;;;;;14.53;6.93;;;;;;;;;;5061065;28;20207;-64
2023/04/17 04:00:45;;;;;;;9.33;6.77;;;;;;;;;;5060682;28;20222;-65
2023/04/17 04:03:13;;;;;;;9.90;7.17;;;;;;;;;;5053420;28;20209;-62
2023/04/17 04:05:41;;;;;;;9.97;7.30;;;;;;;;;;5061831;28;20222;-64
2023/04/17 04:08:09;;;;;;;11.43;7.80;;;;;;;;;;5060025;28;20261;-62
2023/04/17 04:10:37;;;;;;;11.40;7.33;;;;;;;;;;5060605;28;20239;-62
2023/04/17 04:13:08;;;;;;;8.73;6.73;;;;;;;;;;5060336;28;20245;-61
2023/04/17 04:15:36;;;;;;;11.20;6.80;;;;;;;;;;5060412;28;20313;-61
2023/04/17 04:18:06;;;;;;;10.70;7.23;;;;;;;;;;5059362;28;20596;-61
2023/04/17 04:20:34;;;;;;;9.13;6.33;;;;;;;;;;5056454;28;20250;-62
2023/04/17 04:23:03;;;;;;;10.83;7.00;;;;;;;;;;5061215;28;20203;-62
2023/04/17 04:25:32;;;;;;;8.57;6.23;;;;;;;;;;5059175;28;20272;-62
2023/04/17 04:28:01;;;;;;;9.10;6.30;;;;;;;;;;5057775;28;20206;-61
2023/04/17 04:30:34;;;;;;;8.03;6.33;;;;;;;;;;5056225;28;20669;-62
2023/04/17 04:33:04;;;;;;;9.57;7.70;;;;;;;;;;5055129;28;20206;-61
2023/04/17 04:35:35;;;;;;;9.03;6.33;;;;;;;;;;5054232;28;20221;-62
2023/04/17 04:38:05;;;;;;;13.10;7.07;;;;;;;;;;5058398;28;20650;-62
2023/04/17 04:40:35;;;;;;;8.53;6.53;;;;;;;;;;5055747;28;20206;-64
2023/04/17 04:43:03;;;;;;;8.17;6.37;;;;;;;;;;5056501;28;20234;-64
2023/04/17 04:45:32;;;;;;;11.70;7.30;;;;;;;;;;5056157;28;20222;-63
2023/04/17 04:48:01;;;;;;;8.73;5.87;;;;;;;;;;5057892;28;20269;-64
2023/04/17 04:50:29;;;;;;;10.57;6.37;;;;;;;;;;5055600;28;20733;-63
2023/04/17 04:52:59;;;;;;;10.40;6.90;;;;;;;;;;5056456;28;20206;-63
2023/04/17 04:55:29;;;;;;;10.13;7.07;;;;;;;;;;5055008;28;20219;-63
2023/04/17 04:57:57;;;;;;;10.23;7.03;;;;;;;;;;5056844;28;20203;-63
2023/04/17 05:00:25;;;;;;;10.77;7.17;;;;;;;;;;5057548;28;20562;-63
2023/04/17 05:02:53;;;;;;;13.70;7.63;;;;;;;;;;5057600;28;20207;-62
2023/04/17 05:05:21;;;;;;;8.87;7.07;;;;;;;;;;5058233;28;20404;-62
2023/04/17 05:07:52;;;;;;;7.90;6.63;;;;;;;;;;5053075;28;20203;-62
2023/04/17 05:10:22;;;;;;;9.17;6.80;;;;;;;;;;5057787;28;20314;-62
2023/04/17 05:12:50;;;;;;;10.67;7.47;;;;;;;;;;5054936;28;20708;-62
2023/04/17 05:15:19;;;;;;;9.40;6.87;;;;;;;;;;5056336;28;20223;-62
2023/04/17 05:17:47;;;;;;;9.57;6.87;;;;;;;;;;5057280;28;20766;-62
2023/04/17 05:20:21;;;;;;;9.80;7.00;;;;;;;;;;5046173;28;20208;-62
2023/04/17 05:22:49;;;;;;;8.23;6.03;;;;;;;;;;5038849;28;20220;-62
2023/04/17 05:25:18;;;;;;;8.97;6.50;;;;;;;;;;5039079;28;20283;-61
2023/04/17 05:27:47;;;;;;;8.13;6.07;;;;;;;;;;5058303;28;20231;-61
2023/04/17 05:30:16;;;;;;;9.70;7.07;;;;;;;;;;5058752;28;20281;-62
2023/04/17 05:32:44;;;;;;;8.00;6.40;;;;;;;;;;5058485;28;20234;-62
2023/04/17 05:35:12;;;;;;;8.67;6.67;;;;;;;;;;5058466;28;20235;-61
2023/04/17 05:37:39;;;;;;;9.83;6.47;;;;;;;;;;5058750;28;20793;-61
2023/04/17 05:40:08;;;;;;;9.50;6.70;;;;;;;;;;5058487;28;20206;-62
2023/04/17 05:42:36;;;;;;;10.03;6.83;;;;;;;;;;5058469;28;20210;-61
2023/04/17 05:45:06;;;;;;;9.17;6.83;;;;;;;;;;5058154;28;20938;-61
2023/04/17 05:47:37;;;;;;;9.60;6.33;;;;;;;;;;5049498;28;20206;-62
2023/04/17 05:50:08;;;;;;;11.10;7.30;;;;;;;;;;5058209;28;20681;-61
2023/04/17 05:52:36;;;;;;;9.30;6.33;;;;;;;;;;5055483;28;20202;-62
2023/04/17 05:55:06;;;;;;;8.80;6.93;;;;;;;;;;5052913;28;20229;-62
2023/04/17 05:57:34;;;;;;;9.80;6.63;;;;;;;;;;5056948;28;20266;-62
2023/04/17 06:00:09;;;;;;;10.10;7.37;;;;;;;;;;5057245;28;20237;-62
2023/04/17 06:02:39;;;;;;;11.70;7.17;;;;;;;;;;5053821;28;20202;-61
2023/04/17 06:05:08;;;;;;;9.37;6.77;;;;;;;;;;5053998;28;20249;-62
2023/04/17 06:07:37;;;;;;;12.90;7.43;;;;;;;;;;5054151;28;20199;-62
2023/04/17 06:10:05;;;;;;;9.07;6.73;;;;;;;;;;5056892;28;20218;-61
2023/04/17 06:12:33;;;;;;;10.07;7.03;;;;;;;;;;5055522;28;20203;-62
2023/04/17 06:15:01;;;;;;;10.03;7.37;;;;;;;;;;5056141;28;20227;-61
2023/04/17 06:17:30;;;;;;;11.57;7.10;;;;;;;;;;5053054;28;20253;-62
2023/04/17 06:20:00;;;;;;;8.83;6.37;;;;;;;;;;5054663;28;20513;-62
2023/04/17 06:22:27;;;;;;;11.23;7.00;;;;;;;;;;5055217;28;20213;-63
2023/04/17 06:24:55;;;;;;;12.20;7.07;;;;;;;;;;5056212;28;20203;-63
2023/04/17 06:27:23;;;;;;;10.67;7.40;;;;;;;;;;5055652;28;20206;-63
2023/04/17 06:29:51;;;;;;;10.13;7.20;;;;;;;;;;5057682;28;20233;-63
2023/04/17 06:32:19;;;;;;;10.03;7.47;;;;;;;;;;5057360;28;20337;-63
2023/04/17 06:34:47;;;;;;;16.60;8.03;;;;;;;;;;5056804;28;20285;-62
2023/04/17 06:37:27;;;;;;;13.20;7.70;;;;;;;;;;5055274;28;20233;-62
2023/04/17 06:39:55;;;;;;;11.17;7.83;;;;;;;;;;5054877;28;20202;-63
2023/04/17 06:42:23;;;;;;;9.97;7.60;;;;;;;;;;5056347;28;20227;-63
2023/04/17 06:44:51;;;;;;;10.67;7.53;;;;;;;;;;5054589;28;20669;-63
2023/04/17 06:47:19;;;;;;;11.57;7.53;;;;;;;;;;5054555;28;20199;-63
2023/04/17 06:49:47;;;;;;;10.70;7.90;;;;;;;;;;5050475;28;20258;-63
2023/04/17 06:52:16;;;;;;;11.67;7.53;;;;;;;;;;5048989;28;20227;-63
2023/04/17 06:54:46;;;;;;;13.10;8.20;;;;;;;;;;5053989;28;20203;-62
2023/04/17 06:57:13;;;;;;;10.73;7.70;;;;;;;;;;5051367;28;20689;-65
2023/04/17 06:59:41;;;;;;;13.33;7.60;;;;;;;;;;5054308;28;20234;-62
2023/04/17 07:02:10;;;;;;;12.97;8.67;;;;;;;;;;5041468;28;20266;-62
2023/04/17 07:04:38;;;;;;;10.53;8.00;;;;;;;;;;5043248;28;20693;-62
2023/04/17 07:07:05;;;;;;;11.50;8.50;;;;;;;;;;5045972;28;20258;-62
2023/04/17 07:09:33;;;;;;;11.67;8.10;;;;;;;;;;5037251;28;20246;-63
2023/04/17 07:12:03;;;;;;;11.43;8.37;;;;;;;;;;5053280;28;20236;-62
2023/04/17 07:14:32;;;;;;;10.07;7.60;;;;;;;;;;5057102;28;20266;-61
2023/04/17 07:17:00;;;;;;;10.87;7.73;;;;;;;;;;5059219;28;20227;-62
2023/04/17 07:19:28;;;;;;;11.43;8.40;;;;;;;;;;5060970;28;20275;-63
2023/04/17 07:21:56;;;;;;;11.17;7.60;;;;;;;;;;5061240;28;20722;-61
2023/04/17 07:24:24;;;;;;;12.13;8.13;;;;;;;;;;5048288;28;20209;-63
2023/04/17 07:26:52;;;;;;;14.77;8.53;;;;;;;;;;5060813;28;20254;-63
2023/04/17 07:29:21;;;;;;;15.07;8.97;;;;;;;;;;5061199;28;20213;-63
2023/04/17 07:31:50;;;;;;;12.53;8.10;;;;;;;;;;5060882;28;20261;-63
2023/04/17 07:34:18;;;;;;;13.60;8.37;;;;;;;;;;5060895;28;20234;-63
2023/04/17 07:36:46;;;;;;;13.43;8.70;;;;;;;;;;5060777;28;20295;-63
2023/04/17 07:39:14;;;;;;;13.40;8.50;;;;;;;;;;5061171;28;20242;-63
2023/04/17 07:41:42;;;;;;;12.77;8.03;;;;;;;;;;5061030;28;20207;-63
2023/04/17 07:44:10;;;;;;;11.30;8.10;;;;;;;;;;5060728;28;20206;-63
2023/04/17 07:46:40;;;;;;;11.70;8.20;;;;;;;;;;5060528;28;20231;-63
2023/04/17 07:49:08;;;;;;;15.07;9.53;;;;;;;;;;5060799;28;20221;-63
2023/04/17 07:51:39;;;;;;;12.43;8.90;;;;;;;;;;5060754;28;20237;-63
2023/04/17 07:54:08;;;;;;;13.77;9.57;;;;;;;;;;5060529;28;20216;-63
2023/04/17 07:56:36;;;;;;;13.13;8.77;;;;;;;;;;5059646;28;20262;-63
2023/04/17 07:59:04;;;;;;;14.27;8.57;;;;;;;;;;5052465;28;20203;-64
2023/04/17 08:01:32;;;;;;;13.93;8.57;;;;;;;;;;5060220;28;20214;-63
2023/04/17 08:04:02;;;;;;;11.80;7.77;;;;;;;;;;5060350;28;20233;-63
2023/04/17 08:06:31;;;;;;;14.83;9.60;;;;;;;;;;5060382;28;20223;-63
2023/04/17 08:09:00;;;;;;;10.83;8.07;;;;;;;;;;5060105;28;20738;-63
2023/04/17 08:11:28;;;;;;;12.10;7.90;;;;;;;;;;5060237;28;20325;-63
2023/04/17 08:13:56;;;;;;;16.67;8.70;;;;;;;;;;5060450;28;20218;-62
2023/04/17 08:16:24;;;;;;;13.10;8.80;;;;;;;;;;5060181;28;20320;-63
2023/04/17 08:18:52;;;;;;;11.20;8.37;;;;;;;;;;5059814;28;20241;-63
2023/04/17 08:21:22;;;;;;;12.13;8.27;;;;;;;;;;5060107;28;20662;-63
2023/04/17 08:23:50;;;;;;;13.90;9.00;;;;;;;;;;5059939;28;20203;-64
2023/04/17 08:26:19;;;;;;;11.87;8.13;;;;;;;;;;5059679;28;20218;-64
2023/04/17 08:28:47;;;;;;;12.40;8.60;;;;;;;;;;5055517;28;20286;-63
2023/04/17 08:31:15;;;;;;;10.03;8.77;;;;;;;;;;5055186;28;20227;-64
2023/04/17 08:33:43;;;;;;;10.77;8.13;;;;;;;;;;5060922;28;20678;-64
2023/04/17 08:36:11;;;;;;;18.10;8.53;;;;;;;;;;5060051;28;20245;-63
2023/04/17 08:38:40;;;;;;;13.50;8.60;;;;;;;;;;5048125;28;20246;-64
2023/04/17 08:41:12;;;;;;;14.60;10.23;;;;;;;;;;5046655;28;20238;-64
2023/04/17 08:43:40;;;;;;;13.03;9.20;;;;;;;;;;5059107;28;20285;-64
2023/04/17 08:46:08;;;;;;;14.90;9.10;;;;;;;;;;5059059;28;20694;-64
2023/04/17 08:48:36;;;;;;;13.30;8.97;;;;;;;;;;5059531;28;20207;-63
2023/04/17 08:51:04;;;;;;;12.33;8.60;;;;;;;;;;5059396;28;20226;-64
2023/04/17 08:53:32;;;;;;;12.93;8.90;;;;;;;;;;5059045;28;20568;-64
2023/04/17 08:56:04;;;;;;;16.07;9.03;;;;;;;;;;5058941;28;20218;-63
2023/04/17 08:58:36;;;;;;;14.20;8.83;;;;;;;;;;5059347;28;20640;-64
2023/04/17 09:01:10;;;;;;;15.00;9.03;;;;;;;;;;5058763;28;20253;-63
2023/04/17 09:03:41;;;;;;;11.83;8.77;;;;;;;;;;5058932;28;20280;-64
2023/04/17 09:06:10;;;;;;;11.93;8.20;;;;;;;;;;5055948;28;20657;-64
2023/04/17 09:08:39;;;;;;;13.13;8.60;;;;;;;;;;5039090;28;20211;-63
2023/04/17 09:11:17;;;;;;;11.47;9.10;;;;;;;;;;5039146;28;20314;-64
2023/04/17 09:13:45;;;;;;;12.47;7.73;;;;;;;;;;5039375;28;20235;-64
2023/04/17 09:16:14;;;;;;;16.70;7.87;;;;;;;;;;5039166;28;20231;-64
2023/04/17 09:18:44;;;;;;;11.87;7.93;;;;;;;;;;5053931;28;20694;-63
2023/04/17 09:21:13;;;;;;;12.10;7.70;;;;;;;;;;5058875;28;20229;-63
2023/04/17 09:23:48;;;;;;;11.10;7.50;;;;;;;;;;5056194;28;20210;-64
2023/04/17 09:26:18;;;;;;;9.33;7.13;;;;;;;;;;5056263;28;20305;-65
2023/04/17 09:29:03;;;;;;;11.37;7.40;;;;;;;;;;5053098;28;20217;-64
2023/04/17 09:31:33;;;;;;;12.40;7.47;;;;;;;;;;5052316;28;20326;-63
2023/04/17 09:34:02;;;;;;;9.13;7.27;;;;;;;;;;5054366;28;20199;-63
2023/04/17 09:36:32;;;;;;;10.60;7.00;;;;;;;;;;5052236;28;20219;-63
2023/04/17 09:39:03;;;;;;;11.40;7.17;;;;;;;;;;5057112;28;20675;-63
2023/04/17 09:41:33;;;;;;;11.87;7.13;;;;;;;;;;5056639;28;20195;-63
2023/04/17 09:44:04;;;;;;;13.07;7.03;;;;;;;;;;5055228;28;20199;-63
2023/04/17 09:46:33;;;;;;;8.80;7.13;;;;;;;;;;5057310;28;20219;-70
2023/04/17 09:49:03;;;;;;;9.83;7.37;;;;;;;;;;5052903;28;20199;-70
2023/04/17 09:51:37;;;;;;;8.30;6.83;;;;;;;;;;5055170;28;20223;-62
2023/04/17 09:54:09;;;;;;;11.50;7.07;;;;;;;;;;5052215;28;20230;-62
2023/04/17 09:56:40;;;;;;;10.67;7.23;;;;;;;;;;5055202;28;20277;-63
2023/04/17 09:59:08;;;;;;;16.60;6.90;;;;;;;;;;5056327;28;20256;-62
2023/04/17 10:01:37;;;;;;;16.23;7.43;;;;;;;;;;5050786;28;20562;-62
2023/04/17 10:04:05;;;;;;;8.33;6.60;;;;;;;;;;5057063;28;20253;-62
2023/04/17 10:06:34;;;;;;;10.77;7.43;;;;;;;;;;5049730;28;20223;-62
2023/04/17 10:09:03;;;;;;;7.27;6.27;;;;;;;;;;5053787;28;20722;-63
2023/04/17 10:11:34;;;;;;;10.27;7.80;;;;;;;;;;5049464;28;20302;-63
2023/04/17 10:14:08;;;;;;;9.20;6.40;;;;;;;;;;5049657;28;20431;-63
2023/04/17 10:16:37;;;;;;;10.47;5.97;;;;;;;;;;5050372;28;20282;-62
2023/04/17 10:19:24;;;;;;;9.17;7.03;;;;;;;;;;5057713;28;20313;-64
2023/04/17 10:22:11;;;;;;;10.03;7.03;;;;;;;;;;5058083;28;20237;-62
2023/04/17 10:24:39;;;;;;;54.10;32.90;;;;;;;;;;5057891;28;20210;-63
2023/04/17 10:27:22;;;;;;;12.63;8.97;;;;;;;;;;5057438;28;20203;-63
2023/04/17 10:29:55;;;;;;;9.23;6.70;;;;;;;;;;5050077;28;20268;-62
2023/04/17 10:32:27;;;;;;;10.00;6.63;;;;;;;;;;5056970;28;20268;-63
2023/04/17 10:34:57;;;;;;;8.53;6.17;;;;;;;;;;5057745;28;20203;-63
2023/04/17 10:37:41;;;;;;;10.40;7.17;;;;;;;;;;5056239;28;20207;-62
2023/04/17 10:40:10;;;;;;;9.87;7.20;;;;;;;;;;5050043;28;20221;-63
2023/04/17 10:42:40;;;;;;;10.57;6.47;;;;;;;;;;5057793;28;20210;-63
2023/04/17 10:45:18;;;;;;;9.10;6.23;;;;;;;;;;5057891;28;20233;-63
2023/04/17 10:47:58;;;;;;;9.10;6.63;;;;;;;;;;5057384;28;20250;-64
2023/04/17 10:50:28;;;;;;;8.67;6.83;;;;;;;;;;5057235;28;20207;-64
2023/04/17 10:52:56;;;;;;;7.93;6.30;;;;;;;;;;5057592;28;20256;-64
2023/04/17 10:55:26;;;;;;;11.10;6.90;;;;;;;;;;5057691;28;20222;-62
2023/04/17 10:57:55;;;;;;;7.60;6.37;;;;;;;;;;5057929;28;20206;-64
2023/04/17 11:00:33;;;;;;;7.07;6.07;;;;;;;;;;5056511;28;20211;-63
2023/04/17 11:03:04;;;;;;;10.57;6.30;;;;;;;;;;5057241;28;20285;-64
2023/04/17 11:05:34;;;;;;;9.60;6.23;;;;;;;;;;5057473;28;20706;-64
2023/04/17 11:08:02;;;;;;;9.53;6.93;;;;;;;;;;5057288;28;20290;-68
2023/04/17 11:10:35;;;;;;;9.90;6.53;;;;;;;;;;5057953;28;20240;-68
2023/04/17 11:13:03;;;;;;;9.47;6.40;;;;;;;;;;5057498;28;20233;-69
2023/04/17 11:15:33;;;;;;;7.87;6.97;;;;;;;;;;5057541;28;20262;-66
2023/04/17 11:18:02;;;;;;;10.90;7.27;;;;;;;;;;5056748;28;20687;-65
2023/04/17 11:20:31;;;;;;;8.07;7.20;;;;;;;;;;5057614;28;20256;-65
2023/04/17 11:23:00;;;;;;;8.90;6.00;;;;;;;;;;5057539;28;20202;-64
2023/04/17 11:25:30;;;;;;;8.50;7.57;;;;;;;;;;5057178;28;20248;-64
2023/04/17 11:27:58;;;;;;;7.13;6.40;;;;;;;;;;5057702;28;20202;-64
2023/04/17 11:30:27;;;;;;;7.83;5.47;;;;;;;;;;5054630;28;20297;-65
2023/04/17 11:32:56;;;;;;;6.77;5.23;;;;;;;;;;5054678;28;20222;-66
2023/04/17 11:35:28;;;;;;;12.87;6.17;;;;;;;;;;5048373;28;20270;-65
2023/04/17 11:38:10;;;;;;;7.90;6.17;;;;;;;;;;5053621;28;20199;-68
2023/04/17 11:40:45;;;;;;;8.53;5.93;;;;;;;;;;5037180;28;20273;-69
2023/04/17 11:43:13;;;;;;;7.33;5.70;;;;;;;;;;5050803;28;20724;-70
2023/04/17 11:45:42;;;;;;;8.53;5.57;;;;;;;;;;5050419;28;20215;-70
2023/04/17 11:48:12;;;;;;;11.27;6.30;;;;;;;;;;5053945;28;20201;-68
2023/04/17 11:50:41;;;;;;;7.97;5.80;;;;;;;;;;5048609;28;20218;-69
2023/04/17 11:53:12;;;;;;;6.53;5.83;;;;;;;;;;5048341;28;20219;-70
2023/04/17 11:55:40;;;;;;;10.60;6.60;;;;;;;;;;5056171;28;20233;-70
2023/04/17 11:58:08;;;;;;;8.93;5.40;;;;;;;;;;5051407;28;20203;-69
2023/04/17 12:00:37;;;;;;;8.70;5.70;;;;;;;;;;5051027;28;20679;-63
2023/04/17 12:03:20;;;;;;;7.60;5.10;;;;;;;;;;5054921;28;20225;-63
2023/04/17 12:05:59;;;;;;;8.07;5.57;;;;;;;;;;5049148;28;20237;-62
2023/04/17 12:08:27;;;;;;;8.30;5.13;;;;;;;;;;5040664;28;20207;-62
2023/04/17 12:10:57;;;;;;;6.33;4.70;;;;;;;;;;5040871;28;20238;-62
2023/04/17 12:13:25;;;;;;;6.10;5.50;;;;;;;;;;5040784;28;20322;-61
2023/04/17 12:15:53;;;;;;;7.77;5.80;;;;;;;;;;5040505;28;20266;-62
2023/04/17 12:18:21;;;;;;;7.13;5.70;;;;;;;;;;5048297;28;20258;-64
2023/04/17 12:20:49;;;;;;;8.20;6.03;;;;;;;;;;5056262;28;20213;-63
2023/04/17 12:23:19;;;;;;;7.60;6.20;;;;;;;;;;5054621;28;20603;-63
2023/04/17 12:25:47;;;;;;;10.63;5.57;;;;;;;;;;5057030;28;20831;-62
2023/04/17 12:28:19;;;;;;;9.37;6.87;;;;;;;;;;5054227;28;20563;-62
2023/04/17 12:30:47;;;;;;;11.97;6.27;;;;;;;;;;5058216;28;20241;-61
2023/04/17 12:33:15;;;;;;;7.20;5.27;;;;;;;;;;5052314;28;20561;-60
2023/04/17 12:35:44;;;;;;;9.03;6.07;;;;;;;;;;5056671;28;20219;-60
2023/04/17 12:38:12;;;;;;;8.97;5.60;;;;;;;;;;5056593;28;20245;-60
2023/04/17 12:40:42;;;;;;;8.03;5.40;;;;;;;;;;5055823;28;20211;-63
2023/04/17 12:43:10;;;;;;;7.03;5.43;;;;;;;;;;5052730;28;20206;-62
2023/04/17 12:45:38;;;;;;;8.60;5.17;;;;;;;;;;5056308;28;20222;-60
2023/04/17 12:48:09;;;;;;;7.07;4.97;;;;;;;;;;5053275;28;20293;-61
2023/04/17 12:50:41;;;;;;;6.87;5.70;;;;;;;;;;5057786;28;20225;-62
2023/04/17 12:53:09;;;;;;;6.47;5.53;;;;;;;;;;5055232;28;20693;-60
2023/04/17 12:55:38;;;;;;;8.37;4.93;;;;;;;;;;5052110;28;20272;-60
2023/04/17 12:58:07;;;;;;;7.13;4.93;;;;;;;;;;5058330;28;20217;-61
2023/04/17 13:00:35;;;;;;;6.33;4.90;;;;;;;;;;5054989;28;20612;-63
2023/04/17 13:03:04;;;;;;;9.17;4.87;;;;;;;;;;5054858;28;20209;-61
2023/04/17 13:05:32;;;;;;;7.80;5.80;;;;;;;;;;5049977;28;20222;-61
2023/04/17 13:08:00;;;;;;;6.47;4.63;;;;;;;;;;5057187;28;20210;-61
2023/04/17 13:10:28;;;;;;;6.23;5.10;;;;;;;;;;5054883;28;20576;-61
2023/04/17 13:12:56;;;;;;;7.63;5.27;;;;;;;;;;5058945;28;20259;-62
2023/04/17 13:15:26;;;;;;;6.53;4.63;;;;;;;;;;5056728;28;20326;-63
2023/04/17 13:17:54;;;;;;;6.10;4.80;;;;;;;;;;5054644;28;20230;-60
2023/04/17 13:20:22;;;;;;;5.60;4.30;;;;;;;;;;5054849;28;20195;-61
2023/04/17 13:22:50;;;;;;;6.60;5.07;;;;;;;;;;5056530;28;20208;-60
2023/04/17 13:25:18;;;;;;;8.07;5.17;;;;;;;;;;5052594;28;20219;-60
2023/04/17 13:27:46;;;;;;;7.00;4.80;;;;;;;;;;5058481;28;20661;-60
2023/04/17 13:30:14;;;;;;;7.60;4.73;;;;;;;;;;5056158;28;20250;-60
2023/04/17 13:32:44;;;;;;;4.53;3.97;;;;;;;;;;5049970;28;20199;-60
2023/04/17 13:35:13;;;;;;;5.03;4.10;;;;;;;;;;5058402;28;20215;-60
2023/04/17 13:37:41;;;;;;;5.10;4.20;;;;;;;;;;5053917;28;20210;-60
2023/04/17 13:40:10;;;;;;;4.93;4.40;;;;;;;;;;5055403;28;20199;-60
2023/04/17 13:42:38;;;;;;;4.93;3.90;;;;;;;;;;5052334;28;20662;-60
2023/04/17 13:45:07;;;;;;;5.60;4.50;;;;;;;;;;5053706;28;20242;-60
2023/04/17 13:47:35;;;;;;;7.43;4.10;;;;;;;;;;5054518;28;20206;-60
2023/04/17 13:50:05;;;;;;;5.27;4.40;;;;;;;;;;5053707;28;20244;-60
2023/04/17 13:52:33;;;;;;;4.63;4.13;;;;;;;;;;5052966;28;20206;-60
2023/04/17 13:55:01;;;;;;;4.97;4.47;;;;;;;;;;5053316;28;20651;-60
2023/04/17 13:57:29;;;;;;;5.87;4.03;;;;;;;;;;5039508;28;20685;-61
2023/04/17 13:59:57;;;;;;;4.70;4.27;;;;;;;;;;5053043;28;20234;-60
2023/04/17 14:02:25;;;;;;;4.83;3.87;;;;;;;;;;5058289;28;20230;-60
2023/04/17 14:04:53;;;;;;;5.47;4.60;;;;;;;;;;5055476;28;20207;-60
2023/04/17 14:07:23;;;;;;;5.23;4.73;;;;;;;;;;5049037;28;20294;-60
2023/04/17 14:09:51;;;;;;;6.70;4.60;;;;;;;;;;5038390;28;20207;-61
2023/04/17 14:12:20;;;;;;;7.00;4.33;;;;;;;;;;5038633;28;20246;-60
2023/04/17 14:14:48;;;;;;;7.07;4.57;;;;;;;;;;5038060;28;20698;-60
2023/04/17 14:17:16;;;;;;;5.63;4.37;;;;;;;;;;5038034;28;20246;-60
2023/04/17 14:19:44;;;;;;;6.47;4.70;;;;;;;;;;5038012;28;20239;-60
2023/04/17 14:22:12;;;;;;;4.37;3.93;;;;;;;;;;5038202;28;20705;-60
2023/04/17 14:24:42;;;;;;;8.47;4.37;;;;;;;;;;5038072;28;20625;-60
2023/04/17 14:27:10;;;;;;;6.67;4.30;;;;;;;;;;5051177;28;20198;-61
2023/04/17 14:29:38;;;;;;;5.63;4.47;;;;;;;;;;5055903;28;20704;-62
2023/04/17 14:32:06;;;;;;;5.97;4.17;;;;;;;;;;5051766;28;20616;-61
2023/04/17 14:34:34;;;;;;;6.70;5.07;;;;;;;;;;5052261;28;20273;-61
2023/04/17 14:37:05;;;;;;;5.80;3.37;;;;;;;;;;5052789;28;20223;-61
2023/04/17 14:39:33;;;;;;;5.20;4.70;;;;;;;;;;5056577;28;20195;-61
2023/04/17 14:42:02;;;;;;;41.53;25.37;;;;;;;;;;5050648;28;20235;-61
2023/04/17 14:44:30;;;;;;;4.83;4.37;;;;;;;;;;5054188;28;20293;-61
2023/04/17 14:46:58;;;;;;;6.70;4.40;;;;;;;;;;5052191;28;20251;-61